Flugwetter Haslital by BIRDWING.ch
alle Angaben ohne Gewähr
code & design by arbyte.ch


Planplatten Sandhubel 1100m
08.05.21  11:304|9  SW9.9°C66%
08.05.21  11:155|11  SSW9.1°C69%
08.05.21  11:003|9  SSW9.1°C68%
08.05.21  10:305|9  SW7.7°C67%
08.05.21  10:003|8  SSW7.3°C69%
➜ Details Wind Sandhubel

Meiringen 589m
08.05.21  11:304|8  WNW11.4°C53%
08.05.21  11:205|7  WNW11.9°C54%
08.05.21  11:102|6  WNW11.3°C54%
08.05.21  10:503|9  WSW10.6°C60%
08.05.21  10:304|9  WSW9.1°C63%

Flugplatz Unterbach 577m
08.05.21  11:204|4  N12.0°C42%
08.05.21  10:502|2  N10.0°C50%
08.05.21  10:202|2  N9.0°C44%
08.05.21  09:202|2  N6.0°C100%

Brienz 567m
08.05.21  11:307|9  W
08.05.21  11:209|12  WNW
08.05.21  11:106|10  W
08.05.21  10:505|10  WSW
08.05.21  10:302|5  WNW

Gütsch ob Andermatt 2283m
08.05.21  11:3041|55  SSO0.9°C59%
08.05.21  11:2041|52  SSO0.4°C58%
08.05.21  11:1043|57  SSO0.4°C60%
08.05.21  10:5045|67  SO0.1°C57%
08.05.21  10:3045|65  SSO-0.3°C61%

Höhematte Metropole 566m
08.05.21  11:389|14  O12.1°C55%
08.05.21  11:2812|14  OSO11.8°C56%
08.05.21  11:1812|16  OSO11.2°C57%
08.05.21  10:589|14  OSO10.4°C64%
08.05.21  10:3812|15  O9.3°C70%

Niederhorn 1950m
08.05.21  11:3812|16  W2.1°C84%
08.05.21  11:2812|16  W2.2°C85%
08.05.21  11:1813|17  W1.7°C86%
08.05.21  10:5819|24  W1.2°C85%
08.05.21  10:3813|23  W1.2°C86%

. . . . . . . . .

Bänzlauistock 2528m
08.05.21  11:301|12  SSW
08.05.21  11:000|0  N
08.05.21  10:300|0  N
08.05.21  10:000|0  N
08.05.21  09:300|0  N

Sidelhorn 2733m
08.05.21  10:3022|28  S
08.05.21  10:0026|32  SSO
08.05.21  09:3025|35  SSO

Brienzer Rothorn 2348m
08.05.21  11:300|0  N
08.05.21  11:000|0  N
08.05.21  10:300|0  N
08.05.21  10:000|0  N
08.05.21  09:300|0  N

Gross Schijen 2784m
08.05.21  11:3013|20  S
08.05.21  11:0012|19  S
08.05.21  10:3014|22  SSO
08.05.21  09:3010|20  S

Altdorf 438m
08.05.21  11:3011|14  NNW12.9°C57%
08.05.21  11:2010|13  NNW12.1°C54%
08.05.21  11:109|13  NNW13.1°C57%
08.05.21  10:509|13  NNW12.0°C61%
08.05.21  10:304|14  NO12.1°C62%

Flugplatz Buochs 449m
08.05.21  11:209|9  ONO12.0°C42%
08.05.21  10:504|4  N13.0°C38%
08.05.21  10:204|4  N11.0°C45%
08.05.21  09:202|2  N10.0°C30%

Flugplatz Alpnach 445m
08.05.21  11:209|9  NO12.0°C42%
08.05.21  10:509|9  ONO12.0°C33%
08.05.21  10:200|0  N12.0°C25%
08.05.21  09:202|2  N9.0°C44%

Chasseral 1599m
08.05.21  11:3016|31  S5.8°C78%
08.05.21  11:2025|43  SSW6.6°C76%
08.05.21  11:1027|44  SSW7.0°C66%
08.05.21  10:5026|40  SSW6.1°C62%
08.05.21  10:3023|39  SSW5.8°C72%

Eggishorn 2893m
08.05.21  11:3019|27  SSW-3.4°C62%
08.05.21  11:2020|31  SW-3.3°C62%
08.05.21  11:1021|30  SW-2.8°C53%
08.05.21  10:5019|28  SW-2.8°C50%
08.05.21  10:3015|28  SW-2.0°C45%

Giswil 471m
08.05.21  11:304|7  NO13.2°C46%
08.05.21  11:204|7  NO12.8°C48%
08.05.21  11:105|7  NO12.4°C54%
08.05.21  10:506|10  NO11.5°C61%
08.05.21  10:307|9  O10.6°C65%

Glarus 517m
08.05.21  11:305|10  NNW14.2°C55%
08.05.21  11:204|9  NNW12.8°C48%
08.05.21  11:105|10  NNW13.2°C52%
08.05.21  10:503|7  NNO11.9°C54%
08.05.21  10:303|5  WNW10.8°C56%

Gornergrat 3129m
08.05.21  11:3017|27  W0.4°C49%
08.05.21  11:2012|20  WSW0.6°C51%
08.05.21  11:1016|26  W
08.05.21  10:5016|28  W-0.2°C53%
08.05.21  10:3015|25  WSW-0.2°C54%

Grimsel Hospiz 1980m
08.05.21  11:3028|38  SSO2.8°C53%
08.05.21  11:2034|41  SSO2.7°C55%
08.05.21  11:1032|43  SSO2.7°C57%
08.05.21  10:5037|45  SSO2.5°C55%
08.05.21  10:3038|47  S2.4°C52%

Jungfraujoch 3580m
08.05.21  11:3019|36  NW-6.1°C84%
08.05.21  11:2021|34  NW-6.2°C84%
08.05.21  11:1026|40  NW-6.2°C84%
08.05.21  10:5023|35  NW-6.3°C84%
08.05.21  10:3021|32  NW-6.6°C81%

Luzern 454m
08.05.21  11:305|10  NO13.7°C55%
08.05.21  11:205|9  NNO13.4°C55%
08.05.21  11:103|6  SO12.3°C56%
08.05.21  10:505|10  NNO12.1°C64%
08.05.21  10:303|10  NO11.3°C64%

Le Moléson 1974m
08.05.21  11:3019|33  SW4.9°C46%
08.05.21  11:2021|36  SW4.9°C40%
08.05.21  11:1016|35  SW4.8°C38%
08.05.21  10:5014|30  SW4.6°C37%
08.05.21  10:3016|31  SW4.1°C32%

Napf 1404m
08.05.21  11:3013|26  SW8.0°C51%
08.05.21  11:208|16  WSW7.9°C53%
08.05.21  11:1010|18  WSW7.4°C48%
08.05.21  10:5010|22  WSW7.3°C54%
08.05.21  10:3010|17  SW6.5°C61%

Säntis 2502m
08.05.21  11:3039|55  WSW-2.2°C59%
08.05.21  11:2039|55  WSW-2.6°C52%
08.05.21  11:1043|54  WSW-2.8°C57%
08.05.21  10:5041|57  WSW-3.2°C60%
08.05.21  10:3046|61  WSW-2.8°C62%

Stockhorn 2190m
08.05.21  11:3023|42  WSW
08.05.21  11:0017|40  WSW
08.05.21  10:3019|40  WSW
08.05.21  09:3018|32  WSW

Thun 570m
08.05.21  11:303|7  OSO11.8°C59%
08.05.21  11:204|8  O11.9°C64%
08.05.21  11:104|8  OSO11.3°C67%
08.05.21  10:504|9  OSO10.3°C69%
08.05.21  10:309|12  O9.6°C73%

Titlis 3040m
08.05.21  11:3033|46  W-2.5°C72%
08.05.21  11:2034|52  WSW-2.8°C70%
08.05.21  11:1038|55  W-3.1°C67%
08.05.21  10:5035|48  WSW-2.9°C68%
08.05.21  10:3031|46  W-3.4°C63%


QNH Druckwerte vom 08.05.2021 11:30
Interlaken1019.0 hPa
Zürich (SMA)1019.3 hPa
Acquarossa / Comprovasco1021.1 hPa
Locarno/Monti1021.7 hPa
Genve-Cointrin1019.4 hPa

Δ Comprovasco - Interlaken in hPa
08.05.21  11:301021.1 - 1019.0 =2.1
08.05.21  11:201021.3 - 1019.1 =2.2
08.05.21  11:001021.4 - 1019.4 =2.0
08.05.21  10:301021.5 - 1019.5 =2.0
08.05.21  09:301021.5 - 1020.3 =1.2

Δ Locarno - Zürich in hPa
08.05.21  11:301021.7 - 1019.3 =2.4
08.05.21  11:201021.7 - 1019.3 =2.4
08.05.21  11:001021.7 - 1019.4 =2.3
08.05.21  10:301021.7 - 1019.4 =2.3
08.05.21  09:301021.5 - 1019.6 =1.9

Δ Genf - Bodensee in hPa
08.05.21  11:301019.4 - 1019.5 =-0.1
08.05.21  11:201019.5 - 1019.5 =0.0
08.05.21  11:001019.7 - 1019.7 =0.0
08.05.21  10:301019.9 - 1019.7 =0.2
08.05.21  09:301020.0 - 1019.9 =0.1

Temp Meiringen - Planplatten in °C/100m
08.05.21  11:3011.4 - 9.9 = 1.50.29
08.05.21  11:0010.6 - 8.5 = 2.10.41
08.05.21  10:309.1 - 7.3 = 1.80.35

Temp Lehn - Niederhorn in °C/100m
08.05.21  11:3913.3 - 2.1 = 11.20.81
08.05.21  11:0912.0 - 1.7 = 10.30.74
08.05.21  10:3910.3 - 1.2 = 9.10.66

Temp Luzern - Pilatus in °C/100m
08.05.21  11:3013.7 - 3.0 = 10.70.65
08.05.21  11:0012.7 - 2.1 = 10.60.64
08.05.21  10:3011.3 - 1.6 = 9.70.59